createdAt,value
2018-07-17T00:00:43.812Z,6.03
2018-07-17T00:03:12.770Z,6.77
2018-07-17T00:05:41.573Z,6.83
2018-07-17T00:08:10.499Z,6.90
2018-07-17T00:10:39.728Z,7.03
2018-07-17T00:13:08.261Z,7.07
2018-07-17T00:15:38.264Z,7.30
2018-07-17T00:18:07.101Z,7.93
2018-07-17T00:20:36.543Z,7.77
2018-07-17T00:23:05.180Z,8.30
2018-07-17T00:25:34.690Z,8.60
2018-07-17T00:28:04.258Z,7.20
2018-07-17T00:30:33.218Z,7.87
2018-07-17T00:33:03.274Z,8.03
2018-07-17T00:35:31.864Z,8.10
2018-07-17T00:38:00.665Z,8.10
2018-07-17T00:40:29.561Z,7.70
2018-07-17T00:42:58.689Z,7.80
2018-07-17T00:45:27.435Z,8.60
2018-07-17T00:47:56.146Z,8.43
2018-07-17T00:50:25.622Z,7.57
2018-07-17T00:52:55.083Z,7.70
2018-07-17T00:55:24.629Z,7.50
2018-07-17T00:57:53.279Z,7.20
2018-07-17T01:00:25.944Z,7.33
2018-07-17T01:02:59.751Z,7.70
2018-07-17T01:05:33.795Z,7.43
2018-07-17T01:08:07.711Z,8.07
2018-07-17T01:10:41.676Z,7.47
2018-07-17T01:13:14.438Z,8.03
2018-07-17T01:15:43.279Z,7.67
2018-07-17T01:18:12.466Z,7.70
2018-07-17T01:20:41.121Z,7.47
2018-07-17T01:23:09.963Z,8.03
2018-07-17T01:25:39.878Z,8.27
2018-07-17T01:28:08.844Z,7.70
2018-07-17T01:30:38.564Z,8.20
2018-07-17T01:33:07.263Z,7.87
2018-07-17T01:35:36.072Z,8.07
2018-07-17T01:38:04.978Z,7.80
2018-07-17T01:40:33.846Z,8.87
2018-07-17T01:43:02.641Z,7.63
2018-07-17T01:45:31.214Z,8.00
2018-07-17T01:47:59.851Z,8.40
2018-07-17T01:50:28.662Z,7.47
2018-07-17T01:52:58.168Z,8.20
2018-07-17T01:55:27.071Z,8.80
2018-07-17T01:57:55.882Z,8.37
2018-07-17T02:00:24.678Z,7.97
2018-07-17T02:02:53.648Z,8.93
2018-07-17T02:05:22.335Z,7.60
2018-07-17T02:07:51.086Z,8.10
2018-07-17T02:10:19.841Z,8.17
2018-07-17T02:12:49.031Z,7.73
2018-07-17T02:15:17.979Z,7.73
2018-07-17T02:17:46.617Z,7.07
2018-07-17T02:20:15.435Z,8.17
2018-07-17T02:22:45.204Z,7.47
2018-07-17T02:25:14.501Z,7.57
2018-07-17T02:27:43.620Z,8.13
2018-07-17T02:30:12.279Z,7.67
2018-07-17T02:32:41.036Z,8.10
2018-07-17T02:35:09.857Z,8.57
2018-07-17T02:37:38.546Z,8.37
2018-07-17T02:40:08.321Z,7.53
2018-07-17T02:42:37.173Z,7.67
2018-07-17T02:45:05.981Z,7.73
2018-07-17T02:47:34.837Z,7.70
2018-07-17T02:50:03.521Z,7.20
2018-07-17T02:52:32.507Z,8.13
2018-07-17T02:55:01.410Z,7.97
2018-07-17T02:57:30.117Z,8.30
2018-07-17T02:59:59.327Z,8.87
2018-07-17T03:02:28.283Z,8.50
2018-07-17T03:04:57.854Z,8.63
2018-07-17T03:07:27.147Z,8.37
2018-07-17T03:09:56.389Z,7.93
2018-07-17T03:12:26.039Z,8.47
2018-07-17T03:14:55.599Z,8.23
2018-07-17T03:17:24.344Z,8.57
2018-07-17T03:19:53.283Z,8.40
2018-07-17T03:22:22.877Z,8.33
2018-07-17T03:24:51.914Z,8.30
2018-07-17T03:27:21.755Z,8.67
2018-07-17T03:29:51.059Z,9.30
2018-07-17T03:32:21.131Z,8.60
2018-07-17T03:34:49.875Z,8.80
2018-07-17T03:37:18.932Z,9.20
2018-07-17T03:39:47.537Z,9.07
2018-07-17T03:42:17.167Z,8.57
2018-07-17T03:44:46.049Z,8.37
2018-07-17T03:47:14.922Z,9.23
2018-07-17T03:49:43.892Z,8.70
2018-07-17T03:52:12.882Z,8.60
2018-07-17T03:54:43.652Z,8.33
2018-07-17T03:57:12.668Z,8.33
2018-07-17T03:59:42.281Z,9.23
2018-07-17T04:02:11.009Z,8.47
2018-07-17T04:04:40.151Z,8.50
2018-07-17T04:07:09.550Z,8.57
2018-07-17T04:09:38.117Z,8.77
2018-07-17T04:12:06.933Z,8.47
2018-07-17T04:14:36.381Z,8.70
2018-07-17T04:17:05.172Z,8.10
2018-07-17T04:19:34.112Z,8.47
2018-07-17T04:22:03.572Z,8.63
2018-07-17T04:24:32.238Z,8.37
2018-07-17T04:27:01.091Z,7.97
2018-07-17T04:29:29.898Z,7.73
2018-07-17T04:31:58.689Z,8.30
2018-07-17T04:34:27.632Z,7.70
2018-07-17T04:36:56.542Z,8.13
2018-07-17T04:39:25.357Z,7.30
2018-07-17T04:41:54.244Z,7.70
2018-07-17T04:44:22.882Z,7.70
2018-07-17T04:46:51.765Z,8.40
2018-07-17T04:49:20.716Z,7.90
2018-07-17T04:51:49.539Z,7.70
2018-07-17T04:54:18.155Z,7.40
2018-07-17T04:56:46.957Z,7.50
2018-07-17T04:59:15.730Z,7.50
2018-07-17T05:01:44.621Z,8.00
2018-07-17T05:04:13.548Z,7.77
2018-07-17T05:06:42.526Z,7.77
2018-07-17T05:09:11.347Z,7.50
2018-07-17T05:11:41.930Z,7.27
2018-07-17T05:14:10.479Z,7.40
2018-07-17T05:16:39.181Z,7.00
2018-07-17T05:19:08.125Z,7.00
2018-07-17T05:21:36.945Z,6.93
2018-07-17T05:24:05.921Z,7.20
2018-07-17T05:26:34.922Z,7.00
2018-07-17T05:29:03.910Z,6.43
2018-07-17T05:31:33.216Z,7.23
2018-07-17T05:34:02.084Z,6.77
2018-07-17T05:36:31.003Z,6.10
2018-07-17T05:38:59.760Z,6.37
2018-07-17T05:41:29.273Z,6.47
2018-07-17T05:43:58.230Z,6.70
2018-07-17T05:46:26.990Z,6.97
2018-07-17T05:48:55.732Z,6.57
2018-07-17T05:51:24.268Z,7.20
2018-07-17T05:53:53.832Z,7.27
2018-07-17T05:56:22.559Z,6.83
2018-07-17T05:58:51.688Z,6.33
2018-07-17T06:01:20.436Z,7.20
2018-07-17T06:03:49.980Z,7.30
2018-07-17T06:06:19.725Z,6.53
2018-07-17T06:09:00.584Z,6.97
2018-07-17T06:11:30.277Z,6.30
2018-07-17T06:13:58.980Z,6.13
2018-07-17T06:16:27.638Z,6.10
2018-07-17T06:18:56.679Z,5.70
2018-07-17T06:21:25.502Z,6.67
2018-07-17T06:23:54.354Z,6.13
2018-07-17T06:26:23.140Z,6.70
2018-07-17T06:28:51.870Z,6.60
2018-07-17T06:31:20.681Z,6.27
2018-07-17T06:33:49.609Z,12.33
2018-07-17T06:36:18.578Z,12.07
2018-07-17T06:38:47.428Z,6.20
2018-07-17T06:41:16.808Z,6.43
2018-07-17T06:43:46.190Z,9.83
2018-07-17T06:46:14.839Z,8.60
2018-07-17T06:48:43.740Z,6.87
2018-07-17T06:51:12.813Z,6.67
2018-07-17T06:53:41.921Z,7.40
2018-07-17T06:56:10.897Z,8.33
2018-07-17T06:58:39.474Z,14.43
2018-07-17T07:01:08.320Z,8.60
2018-07-17T07:03:37.319Z,7.30
2018-07-17T07:06:06.382Z,6.70
2018-07-17T07:08:35.077Z,7.33
2018-07-17T07:11:04.001Z,6.73
2018-07-17T07:13:32.747Z,6.53
2018-07-17T07:16:01.422Z,8.67
2018-07-17T07:18:30.564Z,7.47
2018-07-17T07:20:59.264Z,7.07
2018-07-17T07:23:27.951Z,6.67
2018-07-17T07:25:56.624Z,7.57
2018-07-17T07:28:25.458Z,5.93
2018-07-17T07:30:54.315Z,6.50
2018-07-17T07:33:23.187Z,6.60
2018-07-17T07:35:51.713Z,6.40
2018-07-17T07:38:20.960Z,5.50
2018-07-17T07:40:49.802Z,5.90
2018-07-17T07:43:18.531Z,5.93
2018-07-17T07:45:47.929Z,5.83
2018-07-17T07:48:17.952Z,5.53
2018-07-17T07:50:46.806Z,5.62
2018-07-17T07:53:15.760Z,5.15
2018-07-17T07:55:44.795Z,5.22
2018-07-17T07:58:15.074Z,13.03
2018-07-17T08:00:43.949Z,8.78
2018-07-17T08:03:12.725Z,5.53
2018-07-17T08:05:42.273Z,5.65
2018-07-17T08:08:11.340Z,5.28
2018-07-17T08:10:40.616Z,5.20
2018-07-17T08:13:09.244Z,4.92
2018-07-17T08:15:39.057Z,4.85
2018-07-17T08:18:08.056Z,5.28
2018-07-17T08:20:37.072Z,4.85
2018-07-17T08:23:05.834Z,4.85
2018-07-17T08:25:34.712Z,4.47
2018-07-17T08:28:04.317Z,4.33
2018-07-17T08:30:33.320Z,4.95
2018-07-17T08:33:02.062Z,4.70
2018-07-17T08:35:32.848Z,5.20
2018-07-17T08:38:01.440Z,5.10
2018-07-17T08:40:30.423Z,4.97
2018-07-17T08:42:59.332Z,5.42
2018-07-17T08:45:28.582Z,5.08
2018-07-17T08:47:57.326Z,6.30
2018-07-17T08:50:26.231Z,5.62
2018-07-17T08:52:55.591Z,5.17
2018-07-17T08:55:24.937Z,5.53
2018-07-17T08:57:53.640Z,4.92
2018-07-17T09:00:22.698Z,5.15
2018-07-17T09:02:51.415Z,5.35
2018-07-17T09:05:20.694Z,5.17
2018-07-17T09:07:50.449Z,5.37
2018-07-17T09:10:19.056Z,5.95
2018-07-17T09:12:49.614Z,5.17
2018-07-17T09:15:18.963Z,5.30
2018-07-17T09:17:48.073Z,5.55
2018-07-17T09:20:16.724Z,5.17
2018-07-17T09:22:47.076Z,5.22
2018-07-17T09:25:17.474Z,5.03
2018-07-17T09:27:47.927Z,4.40
2018-07-17T09:30:16.793Z,4.72
2018-07-17T09:32:45.728Z,4.42
2018-07-17T09:35:15.195Z,4.15
2018-07-17T09:37:44.089Z,3.90
2018-07-17T09:40:12.841Z,4.53
2018-07-17T09:42:41.733Z,3.90
2018-07-17T09:45:14.537Z,4.40
2018-07-17T09:47:45.963Z,5.28
2018-07-17T09:50:16.373Z,4.28
2018-07-17T09:52:45.052Z,4.17
2018-07-17T09:55:14.062Z,4.15
2018-07-17T09:57:43.159Z,4.25
2018-07-17T10:00:16.340Z,4.47
2018-07-17T10:02:45.097Z,4.83
2018-07-17T10:05:13.717Z,4.67
2018-07-17T10:07:43.050Z,4.05
2018-07-17T10:10:12.426Z,4.45
2018-07-17T10:12:41.183Z,4.60
2018-07-17T10:15:09.982Z,6.90
2018-07-17T10:17:39.014Z,4.90
2018-07-17T10:20:08.079Z,5.65
2018-07-17T10:22:36.607Z,4.20
2018-07-17T10:25:06.109Z,4.33
2018-07-17T10:27:34.736Z,4.78
2018-07-17T10:30:03.388Z,4.78
2018-07-17T10:32:32.351Z,4.35
2018-07-17T10:35:00.955Z,3.92
2018-07-17T10:37:29.641Z,4.53
2018-07-17T10:39:58.494Z,4.17
2018-07-17T10:42:27.752Z,3.35
2018-07-17T10:44:56.412Z,4.08
2018-07-17T10:47:25.363Z,3.17
2018-07-17T10:49:54.172Z,2.90
2018-07-17T10:52:22.808Z,3.10
2018-07-17T10:54:51.686Z,2.92
2018-07-17T10:57:20.445Z,2.80
2018-07-17T10:59:49.034Z,3.17
2018-07-17T11:02:17.897Z,2.77
2018-07-17T11:04:46.722Z,3.00
2018-07-17T11:07:15.457Z,2.90
2018-07-17T11:09:44.189Z,3.10
2018-07-17T11:12:13.084Z,2.87
2018-07-17T11:14:41.803Z,3.22
2018-07-17T11:17:11.540Z,3.33
2018-07-17T11:19:40.284Z,2.90
2018-07-17T11:22:09.176Z,3.22
2018-07-17T11:24:37.930Z,3.10
2018-07-17T11:27:07.305Z,3.30
2018-07-17T11:29:37.242Z,3.27
2018-07-17T11:32:06.107Z,3.22
2018-07-17T11:34:34.669Z,3.10
2018-07-17T11:37:03.401Z,3.27
2018-07-17T11:39:32.135Z,3.37
2018-07-17T11:42:01.089Z,3.20
2018-07-17T11:44:29.976Z,3.75
2018-07-17T11:46:59.939Z,2.65
2018-07-17T11:49:28.594Z,2.95
2018-07-17T11:51:57.160Z,3.15
2018-07-17T11:54:26.316Z,3.42
2018-07-17T11:56:55.880Z,3.95
2018-07-17T11:59:24.816Z,3.20
2018-07-17T12:01:53.820Z,2.90
2018-07-17T12:04:22.457Z,2.92
2018-07-17T12:06:51.962Z,2.80
2018-07-17T12:09:20.858Z,2.83
2018-07-17T12:11:51.764Z,2.80
2018-07-17T12:14:20.777Z,2.98
2018-07-17T12:16:53.943Z,3.12
2018-07-17T12:19:22.977Z,3.27
2018-07-17T12:21:51.831Z,3.25
2018-07-17T12:24:20.491Z,3.10
2018-07-17T12:26:50.159Z,3.40
2018-07-17T12:29:18.663Z,2.98
2018-07-17T12:31:47.206Z,2.70
2018-07-17T12:34:16.547Z,2.83
2018-07-17T12:36:45.441Z,3.60
2018-07-17T12:39:14.760Z,3.65
2018-07-17T12:41:44.417Z,3.35
2018-07-17T12:44:13.475Z,3.40
2018-07-17T12:46:42.055Z,4.37
2018-07-17T12:49:11.308Z,3.92
2018-07-17T12:51:40.300Z,3.25
2018-07-17T12:54:09.448Z,3.35
2018-07-17T12:56:38.150Z,3.30
2018-07-17T12:59:06.789Z,3.58
2018-07-17T13:01:36.488Z,3.17
2018-07-17T13:04:05.310Z,3.67
2018-07-17T13:06:34.302Z,3.42
2018-07-17T13:09:03.152Z,3.42
2018-07-17T13:11:32.457Z,3.37
2018-07-17T13:14:01.946Z,3.33
2018-07-17T13:16:31.131Z,3.72
2018-07-17T13:19:00.543Z,3.45
2018-07-17T13:21:30.503Z,3.42
2018-07-17T13:24:00.382Z,3.98
2018-07-17T13:26:29.202Z,4.10
2018-07-17T13:28:58.283Z,4.20
2018-07-17T13:31:27.281Z,6.85
2018-07-17T13:33:56.843Z,4.30
2018-07-17T13:36:26.738Z,4.87
2018-07-17T13:38:55.776Z,7.40
2018-07-17T13:41:25.509Z,5.62
2018-07-17T13:43:54.877Z,5.45
2018-07-17T13:46:23.794Z,6.35
2018-07-17T13:48:54.375Z,5.97
2018-07-17T13:51:24.477Z,4.92
2018-07-17T13:53:54.312Z,4.60
2018-07-17T13:56:27.278Z,4.28
2018-07-17T13:58:58.240Z,4.22
2018-07-17T14:01:27.540Z,3.10
2018-07-17T14:03:56.263Z,3.98
2018-07-17T14:06:24.779Z,2.40
2018-07-17T14:08:53.613Z,2.35
2018-07-17T14:11:24.271Z,2.17
2018-07-17T14:13:53.294Z,1.80
2018-07-17T14:16:22.349Z,2.02
2018-07-17T14:18:51.863Z,1.92
2018-07-17T14:21:20.646Z,2.00
2018-07-17T14:23:49.810Z,2.05
2018-07-17T14:26:18.862Z,2.25
2018-07-17T14:28:48.118Z,1.80
2018-07-17T14:31:17.085Z,4.72
2018-07-17T14:33:46.716Z,1.92
2018-07-17T14:36:15.458Z,1.98
2018-07-17T14:38:44.159Z,1.80
2018-07-17T14:41:13.762Z,2.30
2018-07-17T14:43:42.345Z,1.90
2018-07-17T14:46:11.112Z,2.20
2018-07-17T14:48:40.279Z,2.17
2018-07-17T14:51:12.612Z,2.30
2018-07-17T14:53:41.497Z,2.25
2018-07-17T14:56:10.534Z,2.55
2018-07-17T14:58:39.986Z,2.42
2018-07-17T15:01:09.614Z,2.58
2018-07-17T15:03:38.511Z,2.40
2018-07-17T15:06:08.063Z,2.52
2018-07-17T15:08:36.982Z,2.52
2018-07-17T15:11:05.711Z,2.60
2018-07-17T15:13:34.865Z,2.30
2018-07-17T15:16:03.838Z,2.85
2018-07-17T15:18:33.024Z,2.42
2018-07-17T15:21:01.782Z,2.45
2018-07-17T15:23:30.557Z,2.42
2018-07-17T15:25:59.662Z,2.72
2018-07-17T15:28:29.267Z,2.40
2018-07-17T15:30:59.141Z,2.55
2018-07-17T15:33:28.712Z,2.40
2018-07-17T15:35:57.310Z,2.83
2018-07-17T15:38:26.286Z,2.75
2018-07-17T15:40:55.325Z,2.90
2018-07-17T15:43:24.682Z,2.50
2018-07-17T15:45:53.540Z,2.27
2018-07-17T15:48:23.684Z,2.40
2018-07-17T15:50:53.426Z,2.33
2018-07-17T15:53:22.373Z,2.30
2018-07-17T15:55:51.442Z,2.22
2018-07-17T15:58:20.069Z,2.20
2018-07-17T16:00:49.021Z,1.98
2018-07-17T16:03:17.785Z,2.33
2018-07-17T16:05:46.673Z,2.20
2018-07-17T16:08:15.517Z,2.10
2018-07-17T16:10:44.243Z,2.20
2018-07-17T16:13:13.100Z,2.10
2018-07-17T16:15:42.124Z,2.15
2018-07-17T16:18:11.104Z,2.17
2018-07-17T16:20:40.507Z,2.60
2018-07-17T16:23:09.310Z,2.77
2018-07-17T16:25:38.568Z,2.62
2018-07-17T16:28:07.389Z,2.30
2018-07-17T16:30:36.161Z,2.55
2018-07-17T16:33:05.148Z,2.25
2018-07-17T16:35:33.851Z,2.87
2018-07-17T16:38:03.420Z,2.20
2018-07-17T16:40:32.408Z,2.65
2018-07-17T16:43:01.128Z,2.30
2018-07-17T16:45:29.906Z,2.47
2018-07-17T16:47:58.881Z,2.40
2018-07-17T16:50:28.031Z,2.65
2018-07-17T16:52:56.874Z,2.60
2018-07-17T16:55:27.084Z,2.22
2018-07-17T16:57:56.185Z,2.12
2018-07-17T17:00:25.889Z,2.37
2018-07-17T17:02:55.202Z,2.60
2018-07-17T17:05:23.898Z,2.50
2018-07-17T17:07:52.964Z,2.75
2018-07-17T17:10:22.088Z,2.45
2018-07-17T17:12:51.249Z,3.02
2018-07-17T17:15:20.732Z,2.55
2018-07-17T17:17:49.834Z,2.80
2018-07-17T17:20:18.764Z,2.70
2018-07-17T17:22:48.419Z,2.62
2018-07-17T17:25:17.692Z,2.70
2018-07-17T17:27:46.640Z,2.45
2018-07-17T17:30:15.582Z,2.75
2018-07-17T17:32:44.697Z,2.60
2018-07-17T17:35:13.730Z,2.67
2018-07-17T17:37:42.788Z,2.70
2018-07-17T17:40:11.561Z,2.60
2018-07-17T17:42:40.443Z,2.87
2018-07-17T17:45:09.205Z,2.80
2018-07-17T17:47:38.144Z,2.70
2018-07-17T17:50:07.099Z,3.25
2018-07-17T17:52:36.538Z,2.77
2018-07-17T17:55:05.265Z,3.05
2018-07-17T17:57:34.331Z,2.92
2018-07-17T18:00:07.404Z,2.95
2018-07-17T18:02:42.870Z,3.60
2018-07-17T18:05:12.065Z,3.45
2018-07-17T18:07:42.534Z,2.90
2018-07-17T18:10:10.817Z,3.65
2018-07-17T18:12:40.214Z,3.08
2018-07-17T18:15:11.891Z,3.20
2018-07-17T18:17:40.407Z,3.55
2018-07-17T18:20:09.041Z,3.58
2018-07-17T18:22:37.299Z,3.33
2018-07-17T18:25:05.683Z,3.52
2018-07-17T18:27:33.887Z,3.30
2018-07-17T18:30:02.183Z,3.10
2018-07-17T18:32:30.480Z,3.60
2018-07-17T18:34:58.784Z,3.35
2018-07-17T18:37:27.153Z,3.33
2018-07-17T18:39:55.477Z,3.42
2018-07-17T18:42:23.807Z,3.70
2018-07-17T18:44:52.015Z,3.70
2018-07-17T18:47:20.406Z,3.50
2018-07-17T18:49:48.820Z,3.60
2018-07-17T18:52:17.112Z,3.37
2018-07-17T18:54:45.306Z,3.45
2018-07-17T18:57:13.748Z,3.95
2018-07-17T18:59:42.000Z,3.90
2018-07-17T19:02:10.230Z,3.65
2018-07-17T19:04:38.483Z,3.90
2018-07-17T19:07:06.820Z,4.53
2018-07-17T19:09:35.025Z,4.28
2018-07-17T19:12:03.785Z,4.03
2018-07-17T19:14:32.110Z,3.87
2018-07-17T19:17:00.609Z,4.08
2018-07-17T19:19:28.969Z,4.07
2018-07-17T19:21:57.461Z,3.67
2018-07-17T19:24:25.964Z,3.70
2018-07-17T19:26:54.312Z,3.80
2018-07-17T19:29:23.079Z,3.40
2018-07-17T19:31:54.048Z,3.73
2018-07-17T19:34:22.492Z,3.50
2018-07-17T19:36:50.731Z,4.03
2018-07-17T19:39:19.100Z,3.90
2018-07-17T19:41:47.606Z,3.67
2018-07-17T19:44:16.613Z,3.57
2018-07-17T19:46:46.995Z,3.57
2018-07-17T19:49:15.366Z,4.07
2018-07-17T19:51:44.609Z,3.67
2018-07-17T19:54:13.102Z,3.60
2018-07-17T19:56:41.408Z,4.00
2018-07-17T19:59:09.761Z,3.57
2018-07-17T20:01:38.126Z,3.67
2018-07-17T20:04:06.836Z,3.77
2018-07-17T20:06:35.353Z,3.90
2018-07-17T20:09:03.972Z,3.73
2018-07-17T20:11:32.308Z,3.90
2018-07-17T20:14:00.541Z,3.43
2018-07-17T20:16:29.015Z,3.93
2018-07-17T20:18:57.281Z,3.73
2018-07-17T20:21:25.754Z,4.20
2018-07-17T20:23:54.199Z,4.07
2018-07-17T20:26:22.666Z,4.17
2018-07-17T20:28:51.176Z,4.30
2018-07-17T20:31:19.450Z,4.03
2018-07-17T20:33:48.376Z,4.50
2018-07-17T20:36:16.678Z,4.10
2018-07-17T20:38:47.228Z,3.90
2018-07-17T20:41:15.815Z,4.30
2018-07-17T20:43:44.175Z,3.90
2018-07-17T20:46:12.625Z,4.40
2018-07-17T20:48:40.858Z,4.10
2018-07-17T20:51:09.830Z,4.70
2018-07-17T20:53:38.284Z,4.07
2018-07-17T20:56:06.889Z,4.47
2018-07-17T20:58:35.254Z,3.87
2018-07-17T21:01:03.589Z,4.33
2018-07-17T21:03:31.956Z,3.93
2018-07-17T21:06:00.307Z,4.10
2018-07-17T21:08:28.799Z,3.80
2018-07-17T21:10:57.302Z,3.83
2018-07-17T21:13:25.552Z,3.83
2018-07-17T21:15:55.372Z,3.80
2018-07-17T21:18:24.662Z,3.67
2018-07-17T21:20:52.947Z,3.77
2018-07-17T21:23:21.190Z,4.00
2018-07-17T21:25:49.765Z,4.20
2018-07-17T21:28:18.851Z,3.50
2018-07-17T21:30:47.165Z,3.77
2018-07-17T21:33:15.432Z,4.23
2018-07-17T21:35:43.961Z,3.87
2018-07-17T21:38:12.284Z,4.27
2018-07-17T21:40:41.794Z,4.37
2018-07-17T21:43:15.075Z,3.70
2018-07-17T21:45:43.387Z,4.63
2018-07-17T21:48:11.767Z,4.27
2018-07-17T21:50:40.050Z,4.10
2018-07-17T21:53:08.498Z,4.43
2018-07-17T21:55:36.773Z,4.50
2018-07-17T21:58:05.225Z,4.30
2018-07-17T22:00:33.819Z,4.50
2018-07-17T22:03:02.072Z,4.63
2018-07-17T22:05:30.361Z,4.57
2018-07-17T22:07:58.545Z,4.50
2018-07-17T22:10:26.863Z,4.50
2018-07-17T22:12:55.378Z,4.40
2018-07-17T22:15:23.642Z,4.50
2018-07-17T22:17:51.874Z,4.47
2018-07-17T22:20:21.129Z,4.90
2018-07-17T22:22:50.171Z,4.03
2018-07-17T22:25:18.450Z,4.37
2018-07-17T22:27:46.651Z,4.10
2018-07-17T22:30:14.925Z,4.20
2018-07-17T22:32:43.164Z,3.60
2018-07-17T22:35:11.640Z,3.87
2018-07-17T22:37:39.919Z,3.80
2018-07-17T22:40:08.156Z,4.30
2018-07-17T22:42:36.451Z,4.07
2018-07-17T22:45:05.180Z,3.90
2018-07-17T22:47:33.463Z,4.10
2018-07-17T22:50:01.977Z,4.27
2018-07-17T22:52:30.171Z,4.30
2018-07-17T22:54:58.419Z,3.97
2018-07-17T22:57:26.680Z,4.00
2018-07-17T22:59:54.980Z,4.13
2018-07-17T23:02:23.352Z,4.00
2018-07-17T23:04:51.588Z,3.60
2018-07-17T23:07:19.880Z,3.67
2018-07-17T23:09:48.159Z,4.00
2018-07-17T23:12:16.625Z,3.90
2018-07-17T23:14:44.936Z,3.50
2018-07-17T23:17:13.170Z,3.87
2018-07-17T23:19:41.441Z,3.63
2018-07-17T23:22:09.702Z,3.87
2018-07-17T23:24:37.985Z,3.90
2018-07-17T23:27:06.237Z,3.80
2018-07-17T23:29:34.527Z,4.17
2018-07-17T23:32:02.796Z,3.80
2018-07-17T23:34:31.098Z,3.90
2018-07-17T23:36:59.323Z,4.03
2018-07-17T23:39:27.586Z,3.70
2018-07-17T23:41:55.791Z,3.80
2018-07-17T23:44:24.168Z,3.83
2018-07-17T23:46:52.498Z,3.50
2018-07-17T23:49:51.728Z,3.40
2018-07-17T23:52:20.000Z,3.77
2018-07-17T23:54:48.394Z,4.07
2018-07-17T23:57:16.778Z,3.43
2018-07-17T23:59:45.095Z,3.97
